Time;durP1;ratioP1;P1;durP2;ratioP2;P2;SDS_P1;SDS_P2;PMS_P1;PMS_P2;Temp;Humidity;BMP_temperature;BMP_pressure;BME280_temperature;BME280_humidity;BME280_pressure;Samples;Min_cycle;Max_cycle;Signal;HPM_P1;HPM_P2
2021/06/22 00:01:23;;;;;;;3.58;1.70;;;14.70;90.80;;;;;;5090263;28;20036;-49
2021/06/22 00:03:50;;;;;;;4.75;1.80;;;14.80;90.80;;;;;;5091526;28;20024;-52
2021/06/22 00:06:17;;;;;;;4.13;1.38;;;14.80;90.70;;;;;;5092425;28;20024;-52
2021/06/22 00:08:44;;;;;;;3.55;1.80;;;14.80;90.70;;;;;;5092264;28;20107;-51
2021/06/22 00:11:12;;;;;;;5.38;2.08;;;14.80;90.70;;;;;;5092212;28;20020;-55
2021/06/22 00:13:39;;;;;;;3.72;1.35;;;14.80;90.60;;;;;;5092144;28;20067;-55
2021/06/22 00:16:06;;;;;;;3.22;1.88;;;14.90;90.70;;;;;;5092192;28;20027;-51
2021/06/22 00:18:34;;;;;;;3.05;1.92;;;14.90;90.70;;;;;;5091733;28;20057;-51
2021/06/22 00:21:02;;;;;;;4.50;1.83;;;14.90;90.70;;;;;;5091872;28;20020;-54
2021/06/22 00:23:29;;;;;;;6.07;1.60;;;14.90;90.60;;;;;;5092067;28;20020;-54
2021/06/22 00:25:57;;;;;;;2.90;1.33;;;14.90;90.70;;;;;;5091957;28;20479;-49
2021/06/22 00:28:24;;;;;;;2.53;1.67;;;15.00;90.70;;;;;;5090827;28;20343;-53
2021/06/22 00:30:52;;;;;;;7.75;2.67;;;15.00;91.30;;;;;;5091219;28;20032;-51
2021/06/22 00:33:19;;;;;;;2.58;1.70;;;15.20;91.60;;;;;;5093410;28;20438;-53
2021/06/22 00:35:47;;;;;;;6.00;2.22;;;15.20;91.40;;;;;;5098779;28;20016;-50
2021/06/22 00:38:17;;;;;;;3.15;1.45;;;15.30;91.20;;;;;;5097558;28;20168;-55
2021/06/22 00:40:44;;;;;;;4.82;2.28;;;15.30;90.90;;;;;;5098430;28;20467;-53
2021/06/22 00:43:12;;;;;;;6.05;2.10;;;15.40;91.00;;;;;;5098511;28;20364;-49
2021/06/22 00:45:39;;;;;;;5.78;2.08;;;15.40;90.90;;;;;;5098849;28;20379;-54
2021/06/22 00:48:07;;;;;;;4.07;1.80;;;15.50;90.20;;;;;;5098863;28;20129;-49
2021/06/22 00:50:34;;;;;;;3.03;1.48;;;15.50;90.10;;;;;;5098303;28;20028;-54
2021/06/22 00:53:02;;;;;;;11.80;2.22;;;15.60;90.50;;;;;;5098679;28;20036;-51
2021/06/22 00:55:32;;;;;;;7.10;1.63;;;15.60;90.50;;;;;;5098790;28;20502;-54
2021/06/22 00:58:05;;;;;;;6.40;1.73;;;15.60;90.00;;;;;;5098707;28;20454;-52
2021/06/22 01:00:33;;;;;;;6.00;1.98;;;15.70;90.40;;;;;;5098424;28;20024;-52
2021/06/22 01:03:01;;;;;;;4.35;1.70;;;15.70;90.20;;;;;;5098540;28;20024;-52
2021/06/22 01:05:29;;;;;;;4.97;1.90;;;15.70;89.60;;;;;;5098679;28;20111;-52
2021/06/22 01:07:58;;;;;;;3.25;1.88;;;15.70;90.00;;;;;;5098562;28;20026;-55
2021/06/22 01:10:26;;;;;;;5.57;2.17;;;15.80;89.60;;;;;;5098626;28;20028;-52
2021/06/22 01:12:57;;;;;;;6.07;2.03;;;15.80;90.20;;;;;;5098311;28;20032;-53
2021/06/22 01:15:27;;;;;;;6.57;1.80;;;15.90;90.10;;;;;;5098736;28;20081;-51
2021/06/22 01:17:56;;;;;;;5.35;2.00;;;15.90;90.00;;;;;;5098645;28;20391;-53
2021/06/22 01:20:29;;;;;;;3.80;1.75;;;15.90;89.50;;;;;;5098581;28;20523;-48
2021/06/22 01:22:59;;;;;;;7.50;1.83;;;16.00;88.70;;;;;;5098356;28;20039;-48
2021/06/22 01:25:26;;;;;;;4.60;1.65;;;16.00;89.10;;;;;;5098524;28;20099;-52
2021/06/22 01:27:55;;;;;;;7.30;1.92;;;16.00;88.90;;;;;;5098531;28;20036;-47
2021/06/22 01:30:24;;;;;;;4.75;1.83;;;16.10;89.40;;;;;;5098281;28;20024;-54
2021/06/22 01:32:52;;;;;;;7.00;3.00;;;16.10;88.80;;;;;;5096456;28;20032;-49
2021/06/22 01:35:19;;;;;;;7.15;1.77;;;16.10;89.70;;;;;;5098557;28;20036;-50
2021/06/22 01:37:55;;;;;;;5.53;1.67;;;16.10;89.10;;;;;;5098640;28;20467;-50
2021/06/22 01:40:23;;;;;;;5.07;1.95;;;16.20;88.60;;;;;;5098213;28;20427;-52
2021/06/22 01:42:51;;;;;;;3.53;1.50;;;16.20;88.10;;;;;;5098417;28;20020;-51
2021/06/22 01:45:19;;;;;;;6.38;1.40;;;16.30;88.30;;;;;;5096275;28;20024;-54
2021/06/22 01:47:46;;;;;;;3.85;1.70;;;16.30;88.50;;;;;;5095326;28;20023;-56
2021/06/22 01:50:15;;;;;;;5.85;1.80;;;16.30;87.90;;;;;;5093859;28;20046;-54
2021/06/22 01:52:44;;;;;;;5.75;1.48;;;16.30;88.10;;;;;;5094590;28;20116;-55
2021/06/22 01:58:00;;;;;;;4.28;1.65;;;16.30;87.50;;;;;;5095195;28;20031;-52
2021/06/22 02:00:28;;;;;;;5.93;1.80;;;16.40;88.10;;;;;;5094629;28;20375;-49
2021/06/22 02:02:55;;;;;;;1.63;1.35;;;16.40;87.90;;;;;;5094489;28;20428;-51
2021/06/22 02:05:23;;;;;;;4.00;1.55;;;16.40;87.90;;;;;;5094561;28;20478;-53
2021/06/22 02:07:50;;;;;;;3.30;1.52;;;16.50;88.00;;;;;;5094721;28;20105;-55
2021/06/22 02:10:17;;;;;;;2.75;1.60;;;16.60;88.10;;;;;;5094741;28;20024;-50
2021/06/22 02:12:45;;;;;;;8.35;1.95;;;16.70;88.30;;;;;;5094303;28;20059;-55
2021/06/22 02:15:12;;;;;;;2.15;1.25;;;16.90;89.10;;;;;;5094112;28;20096;-53
2021/06/22 02:17:40;;;;;;;6.57;1.85;;;17.10;88.40;;;;;;5094564;28;20052;-49
2021/06/22 02:20:08;;;;;;;1.80;1.20;;;17.30;87.90;;;;;;5094488;28;20016;-53
2021/06/22 02:22:36;;;;;;;3.28;1.88;;;17.40;85.30;;;;;;5094427;28;20462;-50
2021/06/22 02:25:06;;;;;;;3.08;1.67;;;17.60;85.60;;;;;;5094259;28;20028;-56
2021/06/22 02:27:34;;;;;;;9.15;1.70;;;17.80;85.10;;;;;;5094252;28;20048;-53
2021/06/22 02:30:03;;;;;;;4.28;1.60;;;18.10;83.90;;;;;;5094149;28;20020;-54
2021/06/22 02:32:30;;;;;;;5.55;1.75;;;18.40;82.80;;;;;;5094068;28;20047;-54
2021/06/22 02:34:58;;;;;;;3.35;1.50;;;18.50;79.70;;;;;;5094367;28;20154;-49
2021/06/22 02:37:25;;;;;;;3.58;1.83;;;18.40;80.80;;;;;;5094222;28;20388;-49
2021/06/22 02:39:52;;;;;;;3.72;1.65;;;18.40;79.60;;;;;;5094124;28;20043;-51
2021/06/22 02:42:19;;;;;;;5.40;2.33;;;18.20;79.80;;;;;;5093692;28;20027;-52
2021/06/22 02:44:47;;;;;;;4.88;2.00;;;18.30;80.70;;;;;;5094126;28;20142;-52
2021/06/22 02:47:14;;;;;;;4.15;2.60;;;18.40;81.30;;;;;;5093478;28;20024;-54
2021/06/22 02:49:42;;;;;;;14.82;3.40;;;18.40;81.00;;;;;;5093775;28;20360;-50
2021/06/22 02:52:09;;;;;;;8.80;3.58;;;18.40;80.20;;;;;;5092409;28;20177;-57
2021/06/22 02:54:40;;;;;;;5.28;3.08;;;18.30;80.00;;;;;;5094037;28;20118;-50
2021/06/22 02:57:11;;;;;;;8.65;3.97;;;18.20;80.20;;;;;;5092356;28;20030;-50
2021/06/22 02:59:39;;;;;;;6.05;3.13;;;18.10;80.50;;;;;;5093874;28;20020;-51
2021/06/22 03:02:08;;;;;;;5.07;3.13;;;18.00;80.60;;;;;;5090606;28;20075;-52
2021/06/22 03:04:36;;;;;;;5.97;2.80;;;18.00;81.10;;;;;;5093834;28;20099;-51
2021/06/22 03:07:04;;;;;;;7.32;3.70;;;17.90;81.30;;;;;;5093034;28;20026;-48
2021/06/22 03:09:31;;;;;;;3.92;2.42;;;17.80;81.70;;;;;;5093901;28;20099;-48
2021/06/22 03:11:59;;;;;;;5.32;2.70;;;17.80;82.10;;;;;;5093169;28;20043;-46
2021/06/22 03:14:27;;;;;;;10.70;2.80;;;17.70;82.90;;;;;;5092877;28;20143;-53
2021/06/22 03:16:54;;;;;;;8.25;2.35;;;17.60;82.90;;;;;;5092822;28;20479;-49
2021/06/22 03:19:21;;;;;;;6.15;2.90;;;17.60;83.40;;;;;;5093376;28;20067;-51
2021/06/22 03:21:49;;;;;;;6.55;2.97;;;17.50;83.40;;;;;;5093385;28;20490;-50
2021/06/22 03:24:19;;;;;;;9.70;4.82;;;17.40;84.10;;;;;;5093057;28;20028;-49
2021/06/22 03:26:47;;;;;;;26.50;9.65;;;17.40;84.90;;;;;;5093100;28;20058;-49
2021/06/22 03:29:16;;;;;;;16.45;8.85;;;17.40;84.80;;;;;;5092957;28;20028;-55
2021/06/22 03:31:43;;;;;;;29.90;14.45;;;17.30;85.10;;;;;;5092915;28;20107;-50
2021/06/22 03:34:11;;;;;;;30.75;14.80;;;17.30;85.40;;;;;;5093344;28;20028;-54
2021/06/22 03:36:43;;;;;;;27.35;14.50;;;17.30;85.50;;;;;;5093156;28;20031;-56
2021/06/22 03:39:10;;;;;;;37.20;17.92;;;17.20;86.10;;;;;;5092805;28;20020;-54
2021/06/22 03:41:39;;;;;;;32.33;17.10;;;17.20;85.60;;;;;;5092970;28;20112;-55
2021/06/22 03:44:06;;;;;;;25.83;15.93;;;17.20;86.00;;;;;;5092885;28;20020;-59
2021/06/22 03:46:34;;;;;;;33.38;17.50;;;17.20;86.60;;;;;;5081610;28;20633;-51
2021/06/22 03:49:01;;;;;;;39.33;20.42;;;17.20;86.30;;;;;;5089097;28;20027;-56
2021/06/22 03:51:28;;;;;;;34.53;18.90;;;17.30;86.20;;;;;;5089660;28;20024;-48
2021/06/22 03:53:56;;;;;;;43.70;24.30;;;17.30;86.10;;;;;;5089135;28;20028;-45
2021/06/22 03:56:25;;;;;;;42.33;22.75;;;17.40;86.30;;;;;;5089760;28;20020;-50
2021/06/22 03:58:52;;;;;;;46.90;22.20;;;17.40;86.10;;;;;;5087376;28;20716;-48
2021/06/22 04:01:20;;;;;;;42.45;23.42;;;17.50;86.70;;;;;;5089875;28;20028;-48
2021/06/22 04:03:47;;;;;;;45.65;26.58;;;17.60;87.10;;;;;;5089601;28;20443;-50
2021/06/22 04:06:17;;;;;;;61.45;31.05;;;17.80;85.10;;;;;;5087524;28;20192;-54
2021/06/22 04:08:44;;;;;;;49.38;29.23;;;17.80;84.80;;;;;;5086241;28;20043;-50
2021/06/22 04:11:13;;;;;;;37.90;22.05;;;17.80;84.60;;;;;;5088595;28;20035;-47
2021/06/22 04:13:41;;;;;;;48.47;26.58;;;17.90;84.40;;;;;;5087733;28;20416;-49
2021/06/22 04:16:08;;;;;;;63.88;30.25;;;17.90;84.10;;;;;;5089441;28;20043;-50
2021/06/22 04:18:36;;;;;;;49.22;28.52;;;17.90;84.60;;;;;;5087457;28;20028;-54
2021/06/22 04:21:03;;;;;;;49.47;26.73;;;18.00;85.60;;;;;;5086906;28;20730;-48
2021/06/22 04:23:30;;;;;;;46.60;22.52;;;18.20;85.10;;;;;;5089233;28;20047;-52
2021/06/22 04:26:12;;;;;;;47.55;25.65;;;18.50;82.90;;;;;;5086926;28;20044;-50
2021/06/22 04:28:39;;;;;;;43.20;20.95;;;18.50;82.60;;;;;;5082195;28;20039;-49
2021/06/22 04:31:07;;;;;;;43.03;25.17;;;18.60;80.70;;;;;;5087591;28;20470;-53
2021/06/22 04:33:34;;;;;;;44.33;26.27;;;18.50;81.10;;;;;;5089492;28;20447;-50
2021/06/22 04:36:02;;;;;;;44.72;23.65;;;18.40;81.20;;;;;;5088456;28;20039;-52
2021/06/22 04:38:29;;;;;;;42.22;21.75;;;18.40;81.50;;;;;;5092074;28;20024;-45
2021/06/22 04:40:56;;;;;;;47.65;25.73;;;18.40;82.40;;;;;;5091612;28;20114;-48
2021/06/22 04:43:23;;;;;;;39.78;20.33;;;18.30;82.00;;;;;;5091650;28;20020;-51
2021/06/22 04:45:51;;;;;;;33.28;18.70;;;18.20;82.40;;;;;;5091747;28;20189;-47
2021/06/22 04:48:18;;;;;;;39.03;21.52;;;18.20;83.20;;;;;;5092106;28;20020;-51
2021/06/22 04:50:46;;;;;;;38.50;21.15;;;18.20;84.20;;;;;;5091831;28;20441;-53
2021/06/22 04:53:13;;;;;;;34.85;21.17;;;18.20;84.10;;;;;;5091307;28;20107;-51
2021/06/22 04:55:40;;;;;;;47.38;23.73;;;18.20;83.50;;;;;;5091500;28;20374;-49
2021/06/22 04:58:08;;;;;;;40.47;22.95;;;18.10;83.30;;;;;;5091720;28;20020;-49
2021/06/22 05:00:35;;;;;;;45.15;24.92;;;18.00;83.50;;;;;;5092308;28;20505;-48
2021/06/22 05:03:03;;;;;;;39.67;22.52;;;18.10;84.10;;;;;;5091524;28;20034;-57
2021/06/22 05:05:30;;;;;;;42.40;24.58;;;18.00;84.00;;;;;;5091675;28;20019;-51
2021/06/22 05:07:58;;;;;;;39.33;22.88;;;18.10;85.50;;;;;;5091646;28;20020;-46
2021/06/22 05:10:25;;;;;;;46.75;28.00;;;18.20;86.10;;;;;;5091990;28;20020;-48
2021/06/22 05:12:52;;;;;;;45.72;23.73;;;18.30;85.30;;;;;;5091006;28;20071;-46
2021/06/22 05:15:20;;;;;;;47.63;26.60;;;18.30;83.50;;;;;;5091684;28;20463;-49
2021/06/22 05:17:47;;;;;;;37.22;22.95;;;18.30;83.30;;;;;;5091867;28;20036;-56
2021/06/22 05:20:15;;;;;;;36.53;20.58;;;18.40;83.00;;;;;;5091981;28;20020;-50
2021/06/22 05:22:42;;;;;;;42.05;23.75;;;18.40;82.60;;;;;;5093826;28;20024;-45
2021/06/22 05:25:10;;;;;;;44.22;24.17;;;18.30;82.70;;;;;;5094986;28;20478;-52
2021/06/22 05:27:38;;;;;;;40.67;23.38;;;18.10;83.00;;;;;;5095492;28;20407;-52
2021/06/22 05:30:06;;;;;;;40.20;23.05;;;18.10;83.10;;;;;;5095359;28;20386;-49
2021/06/22 05:32:33;;;;;;;36.45;21.33;;;18.10;83.40;;;;;;5095305;28;20043;-51
2021/06/22 05:35:01;;;;;;;43.47;21.73;;;18.00;83.60;;;;;;5095445;28;20035;-53
2021/06/22 05:37:28;;;;;;;36.30;22.60;;;17.90;83.90;;;;;;5093870;28;20051;-52
2021/06/22 05:39:56;;;;;;;35.85;19.45;;;17.80;84.30;;;;;;5094926;28;20141;-53
2021/06/22 05:42:23;;;;;;;39.42;21.60;;;17.80;84.50;;;;;;5095196;28;20173;-51
2021/06/22 05:44:50;;;;;;;36.58;18.70;;;17.70;84.90;;;;;;5093102;28;20024;-51
2021/06/22 05:47:18;;;;;;;35.53;19.85;;;17.70;84.90;;;;;;5094983;28;20119;-52
2021/06/22 05:49:45;;;;;;;32.70;19.35;;;17.60;85.30;;;;;;5094921;28;20407;-50
2021/06/22 05:52:12;;;;;;;30.52;18.50;;;17.60;85.50;;;;;;5095260;28;20089;-50
2021/06/22 05:54:40;;;;;;;32.28;19.67;;;17.50;85.40;;;;;;5094970;28;20386;-47
2021/06/22 05:57:10;;;;;;;35.53;20.65;;;17.50;85.90;;;;;;5083131;28;20032;-54
2021/06/22 05:59:38;;;;;;;35.75;20.42;;;17.50;86.00;;;;;;5089048;28;20016;-53
2021/06/22 06:02:05;;;;;;;26.52;15.93;;;17.40;86.20;;;;;;5090010;28;20386;-49
2021/06/22 06:04:32;;;;;;;36.03;17.73;;;17.50;86.40;;;;;;5091135;28;20024;-51
2021/06/22 06:07:00;;;;;;;30.85;19.17;;;17.40;86.50;;;;;;5091269;28;20032;-48
2021/06/22 06:09:28;;;;;;;31.70;18.92;;;17.50;86.40;;;;;;5089741;28;20081;-53
2021/06/22 06:11:55;;;;;;;39.47;24.85;;;17.40;86.30;;;;;;5090433;28;20085;-52
2021/06/22 06:14:23;;;;;;;35.08;21.42;;;17.40;86.50;;;;;;5091333;28;20393;-53
2021/06/22 06:16:56;;;;;;;33.13;16.63;;;17.40;86.60;;;;;;5091581;28;20494;-47
2021/06/22 06:19:24;;;;;;;27.40;17.58;;;17.40;87.00;;;;;;5086264;28;20429;-52
2021/06/22 06:21:51;;;;;;;36.65;22.80;;;17.40;86.40;;;;;;5091400;28;20032;-50
2021/06/22 06:24:18;;;;;;;33.92;21.25;;;17.40;87.20;;;;;;5089091;28;20024;-52
2021/06/22 06:29:25;;;;;;;35.03;22.73;;;17.30;86.80;;;;;;5087310;28;20425;-53
2021/06/22 06:31:52;;;;;;;31.10;19.98;;;17.30;87.20;;;;;;5090761;28;20040;-50
2021/06/22 06:34:20;;;;;;;30.25;21.10;;;17.20;87.00;;;;;;5089459;28;20035;-47
2021/06/22 06:36:47;;;;;;;28.90;20.15;;;17.20;87.30;;;;;;5091039;28;20028;-51
2021/06/22 06:39:15;;;;;;;30.75;21.38;;;17.20;87.40;;;;;;5088169;28;20086;-52
2021/06/22 06:41:42;;;;;;;30.85;21.00;;;17.20;87.50;;;;;;5091538;28;20104;-51
2021/06/22 06:44:09;;;;;;;36.53;23.95;;;17.20;87.60;;;;;;5090257;28;20024;-53
2021/06/22 06:46:37;;;;;;;35.22;24.52;;;17.10;88.10;;;;;;5090583;28;20020;-53
2021/06/22 06:49:04;;;;;;;30.88;22.70;;;17.10;88.20;;;;;;5087090;28;20074;-52
2021/06/22 06:51:31;;;;;;;32.72;21.35;;;17.20;88.20;;;;;;5090429;28;20067;-53
2021/06/22 06:53:59;;;;;;;35.75;24.58;;;17.10;87.90;;;;;;5090344;28;20036;-49
2021/06/22 06:56:26;;;;;;;34.25;23.73;;;17.10;88.30;;;;;;5089850;28;20075;-52
2021/06/22 06:58:54;;;;;;;40.05;24.50;;;17.10;88.00;;;;;;5087131;28;20115;-53
2021/06/22 07:01:21;;;;;;;34.38;23.85;;;17.10;88.10;;;;;;5090082;28;20475;-51
2021/06/22 07:03:48;;;;;;;29.73;22.30;;;17.00;88.30;;;;;;5091289;28;20060;-53
2021/06/22 07:06:16;;;;;;;38.20;24.85;;;17.00;88.50;;;;;;5089776;28;20487;-59
2021/06/22 07:08:44;;;;;;;35.25;24.00;;;16.90;88.60;;;;;;5086559;28;20421;-49
2021/06/22 07:11:12;;;;;;;37.08;25.00;;;16.90;88.90;;;;;;5090063;28;20092;-52
2021/06/22 07:13:40;;;;;;;31.40;22.58;;;16.90;89.00;;;;;;5090571;28;20491;-51
2021/06/22 07:16:07;;;;;;;31.48;22.05;;;16.90;89.00;;;;;;5090190;28;20051;-49
2021/06/22 07:18:35;;;;;;;36.22;21.73;;;16.90;89.20;;;;;;5085785;28;20150;-56
2021/06/22 07:21:02;;;;;;;34.63;23.25;;;16.80;89.30;;;;;;5090056;28;20020;-49
2021/06/22 07:23:30;;;;;;;33.03;21.27;;;16.80;89.40;;;;;;5090392;28;20066;-50
2021/06/22 07:25:57;;;;;;;27.92;19.75;;;16.80;89.50;;;;;;5089806;28;20398;-51
2021/06/22 07:28:24;;;;;;;30.20;21.00;;;16.80;89.50;;;;;;5083490;28;20036;-51
2021/06/22 07:30:52;;;;;;;34.30;20.23;;;16.80;89.70;;;;;;5090057;28;20445;-49
2021/06/22 07:33:19;;;;;;;31.35;18.40;;;16.80;89.70;;;;;;5090131;28;20504;-55
2021/06/22 07:35:47;;;;;;;34.83;22.42;;;16.70;89.70;;;;;;5088002;28;20032;-57
2021/06/22 07:38:14;;;;;;;36.30;21.17;;;16.80;90.00;;;;;;5086255;28;20032;-51
2021/06/22 07:40:42;;;;;;;31.85;21.75;;;16.80;90.10;;;;;;5088628;28;20111;-48
2021/06/22 07:43:09;;;;;;;28.20;20.08;;;16.70;90.00;;;;;;5088812;28;20391;-48
2021/06/22 07:45:37;;;;;;;25.92;18.70;;;16.70;90.00;;;;;;5092963;28;20024;-54
2021/06/22 07:48:04;;;;;;;25.85;17.25;;;16.70;90.10;;;;;;5085116;28;20351;-53
2021/06/22 07:50:32;;;;;;;26.85;16.52;;;16.70;90.00;;;;;;5090027;28;20043;-51
2021/06/22 07:53:01;;;;;;;25.50;17.40;;;16.60;90.00;;;;;;5088086;28;20081;-49
2021/06/22 07:55:32;;;;;;;32.92;18.40;;;16.60;90.00;;;;;;5089749;28;20116;-47
2021/06/22 07:58:00;;;;;;;22.23;14.68;;;16.70;90.10;;;;;;5088828;28;20160;-46
2021/06/22 08:00:42;;;;;;;26.00;16.63;;;16.60;90.00;;;;;;5088956;28;20103;-52
2021/06/22 08:03:17;;;;;;;22.25;15.48;;;16.60;90.00;;;;;;5084936;28;20020;-50
2021/06/22 08:05:47;;;;;;;26.33;15.63;;;16.60;90.00;;;;;;5089825;28;20039;-50
2021/06/22 08:08:18;;;;;;;25.65;15.68;;;16.60;90.00;;;;;;5089253;28;20024;-50
2021/06/22 08:10:52;;;;;;;24.55;15.90;;;16.60;90.00;;;;;;5089154;28;20036;-51
2021/06/22 08:13:24;;;;;;;28.25;15.02;;;16.60;89.80;;;;;;5085753;28;20460;-54
2021/06/22 08:15:52;;;;;;;19.65;14.15;;;16.60;89.70;;;;;;5087975;28;20383;-55
2021/06/22 08:18:20;;;;;;;19.85;14.23;;;16.60;89.60;;;;;;5088255;28;20054;-53
2021/06/22 08:20:50;;;;;;;22.40;14.02;;;16.60;89.60;;;;;;5089085;28;20024;-52
2021/06/22 08:23:18;;;;;;;22.80;14.82;;;16.50;89.50;;;;;;5084600;28;20020;-54
2021/06/22 08:25:45;;;;;;;19.05;14.20;;;16.50;89.90;;;;;;5087379;28;20153;-53
2021/06/22 08:28:14;;;;;;;19.02;13.65;;;16.50;89.70;;;;;;5089017;28;20490;-50
2021/06/22 08:30:41;;;;;;;20.13;13.35;;;16.50;89.60;;;;;;5089332;28;20547;-51
2021/06/22 08:33:09;;;;;;;21.85;13.35;;;16.50;89.50;;;;;;5084524;28;20090;-55
2021/06/22 08:35:37;;;;;;;20.73;13.13;;;16.50;89.50;;;;;;5089301;28;20028;-53
2021/06/22 08:38:09;;;;;;;24.25;14.45;;;16.50;89.30;;;;;;5089110;28;20035;-53
2021/06/22 08:40:39;;;;;;;23.85;14.88;;;16.50;89.30;;;;;;5088916;28;20115;-55
2021/06/22 08:43:10;;;;;;;20.65;12.25;;;16.50;89.30;;;;;;5085102;28;20020;-54
2021/06/22 08:45:39;;;;;;;22.55;13.80;;;16.50;89.40;;;;;;5088916;28;20107;-51
2021/06/22 08:48:10;;;;;;;23.25;13.25;;;16.50;89.30;;;;;;5089529;28;20600;-48
2021/06/22 08:50:43;;;;;;;17.27;12.00;;;16.40;89.10;;;;;;5088961;28;20039;-53
2021/06/22 08:53:15;;;;;;;19.50;12.85;;;16.40;89.20;;;;;;5083009;28;20036;-54
2021/06/22 08:55:46;;;;;;;22.40;14.07;;;16.40;89.20;;;;;;5091941;28;20047;-53
2021/06/22 08:58:15;;;;;;;22.83;14.55;;;16.40;89.20;;;;;;5091420;28;20849;-52
2021/06/22 09:00:51;;;;;;;22.42;14.23;;;16.40;89.20;;;;;;5093151;28;20395;-52
2021/06/22 09:03:24;;;;;;;21.48;13.77;;;16.40;89.20;;;;;;5088220;28;20028;-51
2021/06/22 09:05:59;;;;;;;20.83;14.10;;;16.40;89.20;;;;;;5092963;28;20028;-53
2021/06/22 09:08:34;;;;;;;21.35;12.98;;;16.30;89.20;;;;;;5093152;28;20146;-51
2021/06/22 09:11:13;;;;;;;19.88;14.32;;;16.30;89.10;;;;;;5091847;28;20061;-49
2021/06/22 09:13:44;;;;;;;23.05;14.98;;;16.30;89.20;;;;;;5089841;28;20490;-58
2021/06/22 09:16:16;;;;;;;19.77;13.32;;;16.30;89.20;;;;;;5092839;28;20069;-52
2021/06/22 09:18:45;;;;;;;19.35;13.30;;;16.30;89.30;;;;;;5091949;28;20031;-57
2021/06/22 09:21:24;;;;;;;23.23;14.05;;;16.20;89.30;;;;;;5090295;28;20127;-52
2021/06/22 09:23:57;;;;;;;21.52;14.48;;;16.20;89.60;;;;;;5091746;28;20359;-56
2021/06/22 09:26:32;;;;;;;21.65;12.80;;;16.20;89.60;;;;;;5092536;28;20044;-55
2021/06/22 09:29:12;;;;;;;20.48;12.68;;;16.20;89.60;;;;;;5093013;28;20028;-51
2021/06/22 09:31:54;;;;;;;24.55;13.60;;;16.20;89.60;;;;;;5088931;28;20043;-53
2021/06/22 09:34:24;;;;;;;;;;;16.20;89.80;;;;;;5091702;28;20475;-54
2021/06/22 09:36:53;;;;;;;22.25;13.43;;;16.20;89.80;;;;;;5092188;28;20041;-49
2021/06/22 09:39:23;;;;;;;33.47;13.60;;;16.10;90.30;;;;;;5092330;28;20028;-52
2021/06/22 09:41:52;;;;;;;28.17;16.90;;;16.20;90.60;;;;;;5089648;28;20356;-51
2021/06/22 09:44:24;;;;;;;34.75;21.48;;;16.20;90.30;;;;;;5092034;28;20064;-51
2021/06/22 09:47:00;;;;;;;48.42;28.00;;;16.20;90.30;;;;;;5092096;28;20043;-51
2021/06/22 09:49:38;;;;;;;74.80;41.70;;;16.20;90.20;;;;;;5089944;28;20039;-49
2021/06/22 09:52:24;;;;;;;93.18;48.33;;;16.20;90.50;;;;;;5086499;28;20067;-53
2021/06/22 09:54:54;;;;;;;93.45;53.22;;;16.20;90.20;;;;;;5090612;28;20028;-52
2021/06/22 09:57:25;;;;;;;99.07;55.33;;;16.20;90.20;;;;;;5091307;28;20044;-52
2021/06/22 10:00:06;;;;;;;86.45;52.88;;;16.20;90.20;;;;;;5092124;28;20394;-48
2021/06/22 10:02:49;;;;;;;92.80;53.05;;;16.20;90.20;;;;;;5087597;28;20056;-49
2021/06/22 10:05:19;;;;;;;98.13;52.05;;;16.20;90.20;;;;;;5091473;28;20034;-49
2021/06/22 10:07:47;;;;;;;90.05;51.55;;;16.20;90.20;;;;;;5090126;28;20027;-51
2021/06/22 10:10:14;;;;;;;91.07;52.03;;;16.20;90.20;;;;;;5091887;28;20017;-54
2021/06/22 10:12:44;;;;;;;89.57;51.22;;;16.20;90.20;;;;;;5088372;28;20071;-55
2021/06/22 10:15:16;;;;;;;89.18;51.30;;;16.20;90.20;;;;;;5091613;28;20026;-51
2021/06/22 10:17:46;;;;;;;87.85;49.72;;;16.20;90.10;;;;;;5091856;28;20388;-51
2021/06/22 10:20:14;;;;;;;85.20;48.50;;;16.20;90.10;;;;;;5091734;28;20040;-49
2021/06/22 10:22:43;;;;;;;87.78;50.42;;;16.30;90.00;;;;;;5087366;28;20128;-47
2021/06/22 10:25:11;;;;;;;84.72;47.40;;;16.30;90.10;;;;;;5091102;28;20070;-51
2021/06/22 10:27:39;;;;;;;84.63;48.17;;;16.30;90.10;;;;;;5091680;28;20105;-51
2021/06/22 10:30:09;;;;;;;91.82;47.95;;;16.20;90.00;;;;;;5091635;28;20416;-57
2021/06/22 10:32:38;;;;;;;79.82;44.97;;;16.30;90.00;;;;;;5087456;28;20110;-52
2021/06/22 10:35:15;;;;;;;82.20;44.65;;;16.30;90.00;;;;;;5091366;28;20008;-54
2021/06/22 10:38:07;;;;;;;75.60;44.40;;;16.20;90.20;;;;;;5089679;28;20112;-57
2021/06/22 10:40:35;;;;;;;83.43;44.38;;;16.30;90.10;;;;;;5091354;28;20020;-59
2021/06/22 10:43:07;;;;;;;79.95;45.72;;;16.20;90.10;;;;;;5087126;28;20047;-53
2021/06/22 10:45:57;;;;;;;82.60;45.17;;;16.20;90.20;;;;;;5090764;28;20050;-54
2021/06/22 10:48:24;;;;;;;82.20;44.72;;;16.20;90.20;;;;;;5091180;28;20092;-56
2021/06/22 10:50:51;;;;;;;74.35;43.28;;;16.20;90.10;;;;;;5089916;28;20429;-58
2021/06/22 10:53:42;;;;;;;74.47;44.55;;;16.20;90.10;;;;;;5085957;28;20136;-53
2021/06/22 10:56:18;;;;;;;72.93;43.40;;;16.20;90.10;;;;;;5090949;28;20122;-56
2021/06/22 10:59:12;;;;;;;75.43;42.38;;;16.20;90.10;;;;;;5089139;28;20028;-53
2021/06/22 11:01:59;;;;;;;74.72;43.42;;;16.20;90.10;;;;;;5086242;28;20120;-53
2021/06/22 11:04:26;;;;;;;76.15;42.92;;;16.20;90.30;;;;;;5089663;28;20024;-51
2021/06/22 11:07:22;;;;;;;60.20;34.65;;;16.20;90.10;;;;;;5089422;28;20168;-55
2021/06/22 11:10:12;;;;;;;74.15;41.20;;;16.20;90.50;;;;;;5071313;28;20507;-54
2021/06/22 11:12:53;;;;;;;67.82;39.75;;;16.10;90.30;;;;;;5086522;28;20032;-53
2021/06/22 11:15:21;;;;;;;66.68;40.75;;;16.10;90.30;;;;;;5090678;28;20020;-50
2021/06/22 11:17:48;;;;;;;69.28;40.63;;;16.10;90.30;;;;;;5088317;28;20051;-56
2021/06/22 11:20:17;;;;;;;73.85;37.65;;;16.10;90.40;;;;;;5088526;28;20016;-47
2021/06/22 11:23:04;;;;;;;74.85;40.58;;;16.10;90.30;;;;;;5085609;28;20059;-48
2021/06/22 11:26:02;;;;;;;68.20;38.42;;;16.10;90.40;;;;;;5088248;28;20093;-54
2021/06/22 11:28:48;;;;;;;68.85;38.25;;;16.10;90.30;;;;;;5091338;28;20027;-46
2021/06/22 11:31:43;;;;;;;61.35;37.40;;;16.00;90.30;;;;;;5087998;28;20051;-55
2021/06/22 11:34:12;;;;;;;63.75;35.97;;;16.00;90.40;;;;;;5093213;28;20046;-53
2021/06/22 11:36:44;;;;;;;60.85;37.28;;;16.00;90.40;;;;;;5093324;28;20097;-58
2021/06/22 11:39:21;;;;;;;64.88;36.45;;;16.00;90.50;;;;;;5092935;28;20047;-54
2021/06/22 11:42:10;;;;;;;64.13;36.15;;;16.00;90.50;;;;;;5093168;28;20028;-54
2021/06/22 11:44:42;;;;;;;59.03;35.83;;;15.90;90.50;;;;;;5092446;28;20544;-52
2021/06/22 11:47:38;;;;;;;60.63;36.63;;;15.90;90.50;;;;;;5092665;28;20028;-55
2021/06/22 11:50:11;;;;;;;59.63;35.05;;;15.90;90.50;;;;;;5087138;28;20032;-54
2021/06/22 11:52:41;;;;;;;60.95;36.13;;;15.90;90.60;;;;;;5091915;28;20046;-55
2021/06/22 11:55:16;;;;;;;52.92;34.00;;;15.90;90.60;;;;;;5092706;28;20081;-55
2021/06/22 11:57:50;;;;;;;55.05;33.85;;;15.90;90.60;;;;;;5092846;28;20414;-55
2021/06/22 12:00:28;;;;;;;55.20;33.65;;;15.90;90.70;;;;;;5092613;28;20103;-57
2021/06/22 12:02:57;;;;;;;51.17;33.40;;;15.90;90.70;;;;;;5092823;28;20028;-55
2021/06/22 12:05:27;;;;;;;54.97;32.58;;;15.90;90.70;;;;;;5093227;28;20020;-55
2021/06/22 12:08:04;;;;;;;52.05;33.03;;;15.80;90.70;;;;;;5092879;28;20453;-52
2021/06/22 12:10:43;;;;;;;55.13;33.70;;;15.80;90.80;;;;;;5092211;28;20073;-53
2021/06/22 12:13:11;;;;;;;53.17;32.83;;;15.80;90.80;;;;;;5092405;28;20032;-57
2021/06/22 12:15:42;;;;;;;52.47;33.28;;;15.80;90.80;;;;;;5092107;28;20119;-46
2021/06/22 12:18:11;;;;;;;56.20;34.00;;;15.80;90.90;;;;;;5092340;28;20073;-52
2021/06/22 12:20:43;;;;;;;54.03;32.58;;;15.80;90.80;;;;;;5092160;28;20485;-48
2021/06/22 12:23:12;;;;;;;61.70;30.08;;;15.80;90.90;;;;;;5092137;28;20494;-56
2021/06/22 12:25:44;;;;;;;54.17;31.15;;;15.80;91.00;;;;;;5092010;28;20024;-52
2021/06/22 12:28:13;;;;;;;52.63;29.77;;;15.80;91.10;;;;;;5092383;28;20546;-55
2021/06/22 12:30:51;;;;;;;58.97;29.38;;;15.80;91.10;;;;;;5091602;28;20061;-53
2021/06/22 12:33:35;;;;;;;51.97;29.02;;;15.80;91.10;;;;;;5092178;28;20054;-54
2021/06/22 12:36:06;;;;;;;45.95;28.98;;;15.80;91.10;;;;;;5092192;28;20028;-52
2021/06/22 12:38:34;;;;;;;43.58;26.90;;;15.80;91.20;;;;;;5092443;28;20031;-54
2021/06/22 12:41:07;;;;;;;45.38;27.73;;;15.80;91.20;;;;;;5092027;28;20020;-51
2021/06/22 12:43:51;;;;;;;41.95;26.88;;;15.70;91.30;;;;;;5092039;28;20027;-47
2021/06/22 12:46:22;;;;;;;42.22;26.70;;;15.70;91.60;;;;;;5092303;28;20032;-55
2021/06/22 12:49:02;;;;;;;44.10;27.23;;;15.70;91.30;;;;;;5092153;28;20031;-49
2021/06/22 12:51:38;;;;;;;45.88;27.85;;;15.70;91.30;;;;;;5091981;28;20516;-52
2021/06/22 12:54:07;;;;;;;42.95;25.52;;;15.70;91.30;;;;;;5092336;28;20036;-52